Time;durP1;ratioP1;P1;durP2;ratioP2;P2;SDS_P1;SDS_P2;PMS_P1;PMS_P2;Temp;Humidity;BMP_temperature;BMP_pressure;BME280_temperature;BME280_humidity;BME280_pressure;Samples;Min_cycle;Max_cycle;Signal;HPM_P1;HPM_P2
2023/03/20 00:01:22;;;;;;;1.30;1.30;;;;;;;;;;5097306;28;20221;-62
2023/03/20 00:03:51;;;;;;;1.43;1.43;;;;;;;;;;5084509;28;20653;-61
2023/03/20 00:06:19;;;;;;;1.20;1.20;;;;;;;;;;5087769;28;20214;-59
2023/03/20 00:08:48;;;;;;;1.40;1.30;;;;;;;;;;5093576;28;20212;-60
2023/03/20 00:11:23;;;;;;;1.43;1.20;;;;;;;;;;5091441;28;20218;-60
2023/03/20 00:13:50;;;;;;;1.70;1.60;;;;;;;;;;5087241;28;20217;-60
2023/03/20 00:16:17;;;;;;;1.20;1.20;;;;;;;;;;5089235;28;20264;-60
2023/03/20 00:18:44;;;;;;;1.17;1.17;;;;;;;;;;5105292;28;20216;-60
2023/03/20 00:21:17;;;;;;;1.40;1.40;;;;;;;;;;5101411;28;20225;-61
2023/03/20 00:23:45;;;;;;;1.07;1.07;;;;;;;;;;5102634;28;20228;-60
2023/03/20 00:26:13;;;;;;;1.13;1.00;;;;;;;;;;5088612;28;20209;-60
2023/03/20 00:28:42;;;;;;;0.97;0.97;;;;;;;;;;5092130;28;20233;-60
2023/03/20 00:31:16;;;;;;;4.57;1.40;;;;;;;;;;5099346;28;20234;-60
2023/03/20 00:33:43;;;;;;;1.00;1.00;;;;;;;;;;5087415;28;20631;-61
2023/03/20 00:36:10;;;;;;;1.13;0.97;;;;;;;;;;5088493;28;20286;-61
2023/03/20 00:38:38;;;;;;;0.87;0.87;;;;;;;;;;5086910;28;20567;-60
2023/03/20 00:41:20;;;;;;;1.63;0.97;;;;;;;;;;5091042;28;20234;-60
2023/03/20 00:43:48;;;;;;;1.20;1.20;;;;;;;;;;5078671;28;20202;-60
2023/03/20 00:46:15;;;;;;;0.93;0.93;;;;;;;;;;5087181;28;20263;-61
2023/03/20 00:48:43;;;;;;;1.03;1.03;;;;;;;;;;5090365;28;20567;-60
2023/03/20 00:51:10;;;;;;;1.20;1.20;;;;;;;;;;5072405;28;20640;-60
2023/03/20 00:53:38;;;;;;;1.03;1.03;;;;;;;;;;5091966;28;20256;-61
2023/03/20 00:56:06;;;;;;;0.70;0.70;;;;;;;;;;5098640;28;20198;-60
2023/03/20 00:58:33;;;;;;;1.70;1.00;;;;;;;;;;5091552;28;20266;-60
2023/03/20 01:01:00;;;;;;;1.20;1.10;;;;;;;;;;5096010;28;20218;-60
2023/03/20 01:03:28;;;;;;;1.17;1.07;;;;;;;;;;5091829;28;20205;-60
2023/03/20 01:05:57;;;;;;;1.03;1.03;;;;;;;;;;5092197;28;20210;-60
2023/03/20 01:08:25;;;;;;;1.90;0.90;;;;;;;;;;5108143;28;20197;-60
2023/03/20 01:10:55;;;;;;;1.20;1.20;;;;;;;;;;5094927;28;20232;-60
2023/03/20 01:13:23;;;;;;;1.20;1.20;;;;;;;;;;5099029;28;20237;-60
2023/03/20 01:15:51;;;;;;;1.03;1.03;;;;;;;;;;5099317;28;20234;-61
2023/03/20 01:18:19;;;;;;;2.13;1.40;;;;;;;;;;5088031;28;20202;-62
2023/03/20 01:20:46;;;;;;;1.20;1.20;;;;;;;;;;5088901;28;20245;-60
2023/03/20 01:23:14;;;;;;;0.97;0.97;;;;;;;;;;5097658;28;20246;-61
2023/03/20 01:25:41;;;;;;;1.40;1.40;;;;;;;;;;5090232;28;20206;-61
2023/03/20 01:28:17;;;;;;;1.43;1.33;;;;;;;;;;5074245;28;20207;-59
2023/03/20 01:30:44;;;;;;;1.03;1.03;;;;;;;;;;5098271;28;20247;-59
2023/03/20 01:33:13;;;;;;;1.70;1.60;;;;;;;;;;5103908;28;20259;-60
2023/03/20 01:35:40;;;;;;;2.90;1.73;;;;;;;;;;5108440;28;20197;-59
2023/03/20 01:38:11;;;;;;;2.20;2.10;;;;;;;;;;5107298;28;20267;-59
2023/03/20 01:40:43;;;;;;;1.90;1.70;;;;;;;;;;5089606;28;20233;-61
2023/03/20 01:43:14;;;;;;;1.67;1.57;;;;;;;;;;5103814;28;20608;-60
2023/03/20 01:45:47;;;;;;;1.80;1.70;;;;;;;;;;5101196;28;20213;-61
2023/03/20 01:48:16;;;;;;;1.80;1.70;;;;;;;;;;5089786;28;20215;-61
2023/03/20 01:50:43;;;;;;;2.50;1.47;;;;;;;;;;5090753;28;20198;-61
2023/03/20 01:53:12;;;;;;;1.53;1.43;;;;;;;;;;5089972;28;20213;-61
2023/03/20 01:55:41;;;;;;;2.07;1.97;;;;;;;;;;5109142;28;20206;-61
2023/03/20 01:58:08;;;;;;;1.77;1.70;;;;;;;;;;5098005;28;20209;-61
2023/03/20 02:00:37;;;;;;;1.87;1.77;;;;;;;;;;5103751;28;20218;-61
2023/03/20 02:03:06;;;;;;;2.10;2.00;;;;;;;;;;5085824;28;20300;-61
2023/03/20 02:05:34;;;;;;;2.17;2.03;;;;;;;;;;5087039;28;20641;-61
2023/03/20 02:08:06;;;;;;;2.23;2.03;;;;;;;;;;5099327;28;20202;-61
2023/03/20 02:10:33;;;;;;;2.93;1.93;;;;;;;;;;5105535;28;20205;-61
2023/03/20 02:13:02;;;;;;;1.97;1.87;;;;;;;;;;5107854;28;20210;-61
2023/03/20 02:15:30;;;;;;;2.17;2.03;;;;;;;;;;5108148;28;20206;-60
2023/03/20 02:17:57;;;;;;;2.13;1.93;;;;;;;;;;5084339;28;20654;-61
2023/03/20 02:20:32;;;;;;;2.27;1.77;;;;;;;;;;5095024;28;20214;-61
2023/03/20 02:23:17;;;;;;;2.17;2.07;;;;;;;;;;5088758;28;20300;-60
2023/03/20 02:25:57;;;;;;;2.03;1.93;;;;;;;;;;5075783;28;20201;-61
2023/03/20 02:28:48;;;;;;;2.60;2.40;;;;;;;;;;5106133;28;20236;-61
2023/03/20 02:31:28;;;;;;;2.17;2.07;;;;;;;;;;5089003;28;20207;-61
2023/03/20 02:34:04;;;;;;;1.90;1.80;;;;;;;;;;5095366;28;20209;-60
2023/03/20 02:36:53;;;;;;;2.13;2.03;;;;;;;;;;5107504;28;20289;-61
2023/03/20 02:39:30;;;;;;;2.10;2.00;;;;;;;;;;5099143;28;20206;-60
2023/03/20 02:42:00;;;;;;;3.13;2.50;;;;;;;;;;5083045;28;20282;-61
2023/03/20 02:44:33;;;;;;;2.20;2.10;;;;;;;;;;5096571;28;20211;-60
2023/03/20 02:47:03;;;;;;;2.67;2.50;;;;;;;;;;5100552;28;20229;-60
2023/03/20 02:49:47;;;;;;;4.80;2.57;;;;;;;;;;5092333;28;20203;-61
2023/03/20 02:52:17;;;;;;;2.90;2.40;;;;;;;;;;5072634;28;20256;-61
2023/03/20 02:54:49;;;;;;;3.67;2.77;;;;;;;;;;5086076;28;20206;-60
2023/03/20 02:57:19;;;;;;;2.87;2.67;;;;;;;;;;5090214;28;20251;-59
2023/03/20 02:59:48;;;;;;;2.80;2.60;;;;;;;;;;5092215;28;20587;-59
2023/03/20 03:02:17;;;;;;;4.63;2.30;;;;;;;;;;5106441;28;20225;-59
2023/03/20 03:07:49;;;;;;;3.40;2.60;;;;;;;;;;5093751;28;20213;-59
2023/03/20 03:10:20;;;;;;;2.93;2.73;;;;;;;;;;5100586;28;20285;-60
2023/03/20 03:12:47;;;;;;;2.93;2.73;;;;;;;;;;5093399;28;20250;-59
2023/03/20 03:15:16;;;;;;;2.53;2.33;;;;;;;;;;5091323;28;20271;-59
2023/03/20 03:17:44;;;;;;;2.07;1.97;;;;;;;;;;5097987;28;20210;-59
2023/03/20 03:20:18;;;;;;;2.83;2.47;;;;;;;;;;5087671;28;20210;-59
2023/03/20 03:22:48;;;;;;;2.43;2.23;;;;;;;;;;5091716;28;20230;-59
2023/03/20 03:25:15;;;;;;;4.67;2.50;;;;;;;;;;5089129;28;20205;-59
2023/03/20 03:27:46;;;;;;;6.83;2.87;;;;;;;;;;5091385;28;20206;-59
2023/03/20 03:30:16;;;;;;;2.93;2.70;;;;;;;;;;5098969;28;20213;-59
2023/03/20 03:32:45;;;;;;;2.63;2.40;;;;;;;;;;5108120;28;20212;-59
2023/03/20 03:35:18;;;;;;;3.40;3.03;;;;;;;;;;5105405;28;20197;-59
2023/03/20 03:37:50;;;;;;;2.57;2.37;;;;;;;;;;5108730;28;20255;-59
2023/03/20 03:40:21;;;;;;;5.90;3.30;;;;;;;;;;5104724;28;20236;-59
2023/03/20 03:42:54;;;;;;;3.60;3.13;;;;;;;;;;5087849;28;20742;-59
2023/03/20 03:45:25;;;;;;;4.33;2.83;;;;;;;;;;5087324;28;20225;-59
2023/03/20 03:47:54;;;;;;;3.83;2.57;;;;;;;;;;5088933;28;20199;-59
2023/03/20 03:50:25;;;;;;;4.03;3.30;;;;;;;;;;5093081;28;20266;-59
2023/03/20 03:52:53;;;;;;;4.03;3.17;;;;;;;;;;5087987;28;20853;-59
2023/03/20 03:55:22;;;;;;;5.30;3.47;;;;;;;;;;5089249;28;20255;-59
2023/03/20 03:57:50;;;;;;;4.57;2.67;;;;;;;;;;5088580;28;20202;-59
2023/03/20 04:00:20;;;;;;;3.23;2.80;;;;;;;;;;5099484;28;20209;-59
2023/03/20 04:02:48;;;;;;;4.10;3.00;;;;;;;;;;5067462;28;20237;-59
2023/03/20 04:05:16;;;;;;;3.20;2.90;;;;;;;;;;5088926;28;20205;-59
2023/03/20 04:07:54;;;;;;;3.90;3.57;;;;;;;;;;5103546;28;20213;-60
2023/03/20 04:10:21;;;;;;;4.03;3.53;;;;;;;;;;5098421;28;20267;-59
2023/03/20 04:12:48;;;;;;;5.33;2.80;;;;;;;;;;5102075;28;20663;-59
2023/03/20 04:15:16;;;;;;;4.63;3.10;;;;;;;;;;5099169;28;20205;-60
2023/03/20 04:17:44;;;;;;;3.53;3.23;;;;;;;;;;5090261;28;20205;-60
2023/03/20 04:20:12;;;;;;;4.27;3.50;;;;;;;;;;5088786;28;20202;-60
2023/03/20 04:22:39;;;;;;;4.30;3.00;;;;;;;;;;5090492;28;20673;-60
2023/03/20 04:25:07;;;;;;;3.13;2.87;;;;;;;;;;5105497;28;20666;-59
2023/03/20 04:27:34;;;;;;;6.93;3.60;;;;;;;;;;5097608;28;20233;-60
2023/03/20 04:30:01;;;;;;;4.13;2.60;;;;;;;;;;5105132;28;20229;-60
2023/03/20 04:32:29;;;;;;;6.00;3.93;;;;;;;;;;5097332;28;20195;-60
2023/03/20 04:34:57;;;;;;;4.27;3.17;;;;;;;;;;5092387;28;20354;-60
2023/03/20 04:37:24;;;;;;;6.30;3.73;;;;;;;;;;5093909;28;20699;-60
2023/03/20 04:39:52;;;;;;;4.70;3.67;;;;;;;;;;5106169;28;20193;-60
2023/03/20 04:42:19;;;;;;;5.50;3.33;;;;;;;;;;5106915;28;20656;-60
2023/03/20 04:44:46;;;;;;;3.37;3.07;;;;;;;;;;5098182;28;20197;-60
2023/03/20 04:47:13;;;;;;;5.43;3.20;;;;;;;;;;5110212;28;20198;-60
2023/03/20 04:49:40;;;;;;;4.93;3.87;;;;;;;;;;5093818;28;20214;-60
2023/03/20 04:52:08;;;;;;;5.97;3.37;;;;;;;;;;5090621;28;20206;-59
2023/03/20 04:54:36;;;;;;;4.37;3.50;;;;;;;;;;5106504;28;20202;-60
2023/03/20 04:57:03;;;;;;;5.03;3.17;;;;;;;;;;5109933;28;20301;-60
2023/03/20 04:59:30;;;;;;;5.10;3.80;;;;;;;;;;5095299;28;20210;-60
2023/03/20 05:01:57;;;;;;;6.80;3.60;;;;;;;;;;5091296;28;20234;-60
2023/03/20 05:04:24;;;;;;;3.97;3.57;;;;;;;;;;5099702;28;20204;-59
2023/03/20 05:06:51;;;;;;;7.13;4.50;;;;;;;;;;5092625;28;20210;-60
2023/03/20 05:09:25;;;;;;;4.37;3.33;;;;;;;;;;5098447;28;20210;-60
2023/03/20 05:11:52;;;;;;;4.40;3.50;;;;;;;;;;5091021;28;20210;-60
2023/03/20 05:14:19;;;;;;;4.00;3.13;;;;;;;;;;5084154;28;20615;-60
2023/03/20 05:16:55;;;;;;;5.07;3.63;;;;;;;;;;5087051;28;20210;-60
2023/03/20 05:19:22;;;;;;;4.67;3.40;;;;;;;;;;5109126;28;20193;-60
2023/03/20 05:21:49;;;;;;;4.20;2.97;;;;;;;;;;5098140;28;20668;-60
2023/03/20 05:24:16;;;;;;;5.13;3.10;;;;;;;;;;5101986;28;20224;-60
2023/03/20 05:26:45;;;;;;;6.00;3.70;;;;;;;;;;5099282;28;20202;-60
2023/03/20 05:29:12;;;;;;;5.17;3.17;;;;;;;;;;5090130;28;20203;-60
2023/03/20 05:31:40;;;;;;;3.90;3.40;;;;;;;;;;5099383;28;20225;-60
2023/03/20 05:34:07;;;;;;;6.17;3.90;;;;;;;;;;5108917;28;20672;-59
2023/03/20 05:36:34;;;;;;;3.67;2.97;;;;;;;;;;5101778;28;20233;-60
2023/03/20 05:39:01;;;;;;;6.80;3.87;;;;;;;;;;5104029;28;20569;-60
2023/03/20 05:41:28;;;;;;;6.07;3.77;;;;;;;;;;5102994;28;20210;-60
2023/03/20 05:43:57;;;;;;;4.83;3.50;;;;;;;;;;5091828;28;20270;-60
2023/03/20 05:46:25;;;;;;;5.73;3.73;;;;;;;;;;5095445;28;20202;-60
2023/03/20 05:48:52;;;;;;;4.17;3.37;;;;;;;;;;5105666;28;20284;-61
2023/03/20 05:51:19;;;;;;;4.53;3.97;;;;;;;;;;5089805;28;20748;-61
2023/03/20 05:53:46;;;;;;;6.63;4.07;;;;;;;;;;5089757;28;20203;-61
2023/03/20 05:56:13;;;;;;;5.53;3.80;;;;;;;;;;5103868;28;20209;-61
2023/03/20 05:58:41;;;;;;;6.23;3.73;;;;;;;;;;5089492;28;20207;-60
2023/03/20 06:01:09;;;;;;;5.93;3.53;;;;;;;;;;5092236;28;20290;-60
2023/03/20 06:03:36;;;;;;;7.50;4.60;;;;;;;;;;5092921;28;20326;-61
2023/03/20 06:06:04;;;;;;;6.53;4.27;;;;;;;;;;5090261;28;20293;-60
2023/03/20 06:08:31;;;;;;;5.70;3.90;;;;;;;;;;5104624;28;20287;-60
2023/03/20 06:10:58;;;;;;;5.20;3.33;;;;;;;;;;5104255;28;20205;-61
2023/03/20 06:13:25;;;;;;;6.57;4.03;;;;;;;;;;5087426;28;20203;-61
2023/03/20 06:15:52;;;;;;;3.77;3.30;;;;;;;;;;5089301;28;20211;-61
2023/03/20 06:18:20;;;;;;;5.63;3.93;;;;;;;;;;5088807;28;20289;-61
2023/03/20 06:20:47;;;;;;;5.43;4.20;;;;;;;;;;5088895;28;20324;-60
2023/03/20 06:23:14;;;;;;;5.30;4.20;;;;;;;;;;5094370;28;20244;-60
2023/03/20 06:25:41;;;;;;;7.27;4.57;;;;;;;;;;5104223;28;20641;-59
2023/03/20 06:28:08;;;;;;;7.20;4.33;;;;;;;;;;5094135;28;20221;-59
2023/03/20 06:30:36;;;;;;;6.77;4.00;;;;;;;;;;5102118;28;20197;-59
2023/03/20 06:33:03;;;;;;;6.50;4.07;;;;;;;;;;5102429;28;20668;-59
2023/03/20 06:35:32;;;;;;;7.73;4.10;;;;;;;;;;5106980;28;20209;-59
2023/03/20 06:38:00;;;;;;;7.83;4.07;;;;;;;;;;5105814;28;20206;-60
2023/03/20 06:40:27;;;;;;;7.70;4.00;;;;;;;;;;5098634;28;20292;-59
2023/03/20 06:42:54;;;;;;;9.90;4.73;;;;;;;;;;5106604;28;20237;-60
2023/03/20 06:45:22;;;;;;;6.47;4.17;;;;;;;;;;5088506;28;20238;-61
2023/03/20 06:47:49;;;;;;;7.03;4.30;;;;;;;;;;5105050;28;20879;-61
2023/03/20 06:50:16;;;;;;;6.53;4.63;;;;;;;;;;5100318;28;20244;-61
2023/03/20 06:52:45;;;;;;;8.47;4.20;;;;;;;;;;5087266;28;20668;-61
2023/03/20 06:55:12;;;;;;;6.07;3.77;;;;;;;;;;5083814;28;20276;-61
2023/03/20 06:57:39;;;;;;;7.37;4.53;;;;;;;;;;5082041;28;20214;-61
2023/03/20 07:00:08;;;;;;;8.33;4.73;;;;;;;;;;5085040;28;20322;-61
2023/03/20 07:02:35;;;;;;;6.47;4.47;;;;;;;;;;5089503;28;20634;-61
2023/03/20 07:05:02;;;;;;;7.70;4.80;;;;;;;;;;5087750;28;20259;-62
2023/03/20 07:07:29;;;;;;;6.40;4.23;;;;;;;;;;5088932;28;20558;-61
2023/03/20 07:09:57;;;;;;;7.30;4.63;;;;;;;;;;5087496;28;20201;-65
2023/03/20 07:12:27;;;;;;;7.03;4.73;;;;;;;;;;5081208;28;20203;-61
2023/03/20 07:14:54;;;;;;;8.53;4.53;;;;;;;;;;5089891;28;20945;-61
2023/03/20 07:17:22;;;;;;;5.80;4.23;;;;;;;;;;5097286;28;20278;-60
2023/03/20 07:19:49;;;;;;;6.80;4.63;;;;;;;;;;5096322;27;20193;-60
2023/03/20 07:22:19;;;;;;;8.30;4.57;;;;;;;;;;5095373;28;20234;-60
2023/03/20 07:24:46;;;;;;;7.80;5.20;;;;;;;;;;5100052;28;20205;-59
2023/03/20 07:27:14;;;;;;;6.27;5.00;;;;;;;;;;5083858;28;20245;-60
2023/03/20 07:29:41;;;;;;;7.53;5.17;;;;;;;;;;5097105;28;20255;-60
2023/03/20 07:32:08;;;;;;;11.80;5.67;;;;;;;;;;5086759;28;20202;-60
2023/03/20 07:34:35;;;;;;;6.33;4.50;;;;;;;;;;5087217;28;20225;-60
2023/03/20 07:37:02;;;;;;;6.83;4.40;;;;;;;;;;5086890;28;20213;-60
2023/03/20 07:39:29;;;;;;;10.43;5.43;;;;;;;;;;5101355;28;20202;-60
2023/03/20 07:41:57;;;;;;;8.70;5.30;;;;;;;;;;5094193;28;20263;-60
2023/03/20 07:44:25;;;;;;;5.83;4.90;;;;;;;;;;5086926;28;20256;-60
2023/03/20 07:46:52;;;;;;;11.80;5.63;;;;;;;;;;5087212;28;20293;-61
2023/03/20 07:49:19;;;;;;;10.87;5.67;;;;;;;;;;5101179;28;20194;-60
2023/03/20 07:51:47;;;;;;;9.83;5.40;;;;;;;;;;5094274;28;20609;-60
2023/03/20 07:54:14;;;;;;;9.57;5.53;;;;;;;;;;5103748;28;20193;-60
2023/03/20 07:56:41;;;;;;;9.00;4.97;;;;;;;;;;5097989;28;20214;-60
2023/03/20 07:59:08;;;;;;;8.93;5.80;;;;;;;;;;5091055;28;20597;-60
2023/03/20 08:01:37;;;;;;;12.03;5.83;;;;;;;;;;5087230;28;20668;-60
2023/03/20 08:04:04;;;;;;;10.37;6.00;;;;;;;;;;5086142;28;20452;-60
2023/03/20 08:06:31;;;;;;;10.53;6.20;;;;;;;;;;5086287;28;20549;-60
2023/03/20 08:08:58;;;;;;;10.53;5.17;;;;;;;;;;5086834;28;20202;-60
2023/03/20 08:11:25;;;;;;;9.57;5.80;;;;;;;;;;5087105;28;20210;-60
2023/03/20 08:13:52;;;;;;;12.20;6.50;;;;;;;;;;5086882;28;20205;-60
2023/03/20 08:16:19;;;;;;;13.40;7.17;;;;;;;;;;5086917;28;20219;-60
2023/03/20 08:18:49;;;;;;;11.30;6.37;;;;;;;;;;5086986;28;20210;-60
2023/03/20 08:21:16;;;;;;;10.53;5.97;;;;;;;;;;5088741;28;20656;-61
2023/03/20 08:23:43;;;;;;;11.67;5.77;;;;;;;;;;5106492;28;20234;-60
2023/03/20 08:26:10;;;;;;;12.10;6.07;;;;;;;;;;5089281;28;20621;-61
2023/03/20 08:28:37;;;;;;;12.70;6.17;;;;;;;;;;5065792;28;20292;-61
2023/03/20 08:31:07;;;;;;;15.20;6.27;;;;;;;;;;5066113;28;20238;-61
2023/03/20 08:33:34;;;;;;;15.07;5.90;;;;;;;;;;5066315;28;20210;-61
2023/03/20 08:36:03;;;;;;;13.33;6.43;;;;;;;;;;5084085;28;20210;-61
2023/03/20 08:38:30;;;;;;;13.67;6.93;;;;;;;;;;5085644;28;20210;-61
2023/03/20 08:40:57;;;;;;;15.33;7.30;;;;;;;;;;5103691;28;20206;-62
2023/03/20 08:43:24;;;;;;;15.20;7.40;;;;;;;;;;5087768;28;20911;-61
2023/03/20 08:45:51;;;;;;;14.60;7.20;;;;;;;;;;5088433;28;20206;-60
2023/03/20 08:48:18;;;;;;;13.13;7.10;;;;;;;;;;5096569;28;20259;-63
2023/03/20 08:50:45;;;;;;;15.10;7.23;;;;;;;;;;5085962;28;20269;-62
2023/03/20 08:53:14;;;;;;;16.60;6.93;;;;;;;;;;5085756;28;20202;-61
2023/03/20 08:55:41;;;;;;;21.10;9.23;;;;;;;;;;5085971;28;20217;-62
2023/03/20 08:58:08;;;;;;;20.93;8.83;;;;;;;;;;5086095;28;20206;-61
2023/03/20 09:00:35;;;;;;;17.30;8.47;;;;;;;;;;5085782;28;20214;-62
2023/03/20 09:03:02;;;;;;;18.93;8.33;;;;;;;;;;5085543;28;20661;-61
2023/03/20 09:05:29;;;;;;;20.13;8.30;;;;;;;;;;5084213;28;20260;-63
2023/03/20 09:07:56;;;;;;;24.23;10.00;;;;;;;;;;5085695;28;20210;-63
2023/03/20 09:10:24;;;;;;;18.63;8.57;;;;;;;;;;5085677;28;20876;-62
2023/03/20 09:12:51;;;;;;;24.67;10.33;;;;;;;;;;5085911;28;20672;-61
2023/03/20 09:15:19;;;;;;;18.27;9.33;;;;;;;;;;5085883;28;20650;-61
2023/03/20 09:17:46;;;;;;;20.07;9.53;;;;;;;;;;5100773;28;20611;-61
2023/03/20 09:20:13;;;;;;;23.73;9.40;;;;;;;;;;5096032;28;20211;-61
2023/03/20 09:22:42;;;;;;;24.80;10.37;;;;;;;;;;5080484;28;20333;-61
2023/03/20 09:25:10;;;;;;;23.20;10.20;;;;;;;;;;5081798;28;20218;-61
2023/03/20 09:27:38;;;;;;;27.90;11.67;;;;;;;;;;5086101;28;20206;-60
2023/03/20 09:30:06;;;;;;;23.60;10.23;;;;;;;;;;5086143;28;20210;-60
2023/03/20 09:32:33;;;;;;;25.73;11.23;;;;;;;;;;5087310;28;20680;-60
2023/03/20 09:35:00;;;;;;;26.73;10.33;;;;;;;;;;5087665;28;20658;-61
2023/03/20 09:37:27;;;;;;;27.17;11.97;;;;;;;;;;5088934;28;20198;-61
2023/03/20 09:39:54;;;;;;;25.83;11.57;;;;;;;;;;5083387;28;20218;-61
2023/03/20 09:42:26;;;;;;;24.97;11.30;;;;;;;;;;5084293;28;20269;-61
2023/03/20 09:44:58;;;;;;;25.20;10.73;;;;;;;;;;5081536;28;20230;-60
2023/03/20 09:47:30;;;;;;;24.43;10.73;;;;;;;;;;5084791;28;20206;-61
2023/03/20 09:50:03;;;;;;;24.03;10.33;;;;;;;;;;5087179;28;20203;-60
2023/03/20 09:52:32;;;;;;;26.37;11.00;;;;;;;;;;5074857;28;20226;-61
2023/03/20 09:55:01;;;;;;;23.50;9.97;;;;;;;;;;5080233;28;20198;-61
2023/03/20 09:57:31;;;;;;;17.73;7.70;;;;;;;;;;5083287;28;20676;-61
2023/03/20 10:00:02;;;;;;;14.00;7.10;;;;;;;;;;5084722;28;20203;-61
2023/03/20 10:02:36;;;;;;;14.35;6.22;;;;;;;;;;5101757;28;20575;-60
2023/03/20 10:05:04;;;;;;;8.97;5.27;;;;;;;;;;5099566;28;20225;-61
2023/03/20 10:07:31;;;;;;;4.72;4.03;;;;;;;;;;5091915;28;20201;-61
2023/03/20 10:09:58;;;;;;;7.70;4.25;;;;;;;;;;5094303;28;20287;-61
2023/03/20 10:12:33;;;;;;;10.45;5.57;;;;;;;;;;5085260;28;20203;-62
2023/03/20 10:15:06;;;;;;;7.13;4.72;;;;;;;;;;5090961;28;20209;-62
2023/03/20 10:17:39;;;;;;;8.70;5.05;;;;;;;;;;5090251;28;20648;-61
2023/03/20 10:20:12;;;;;;;6.20;4.20;;;;;;;;;;5083315;28;20210;-61
2023/03/20 10:22:41;;;;;;;7.25;4.65;;;;;;;;;;5089204;28;20245;-61
2023/03/20 10:25:16;;;;;;;5.80;4.15;;;;;;;;;;5085341;28;20226;-61
2023/03/20 10:27:44;;;;;;;8.52;4.55;;;;;;;;;;5086074;28;20210;-61
2023/03/20 10:30:20;;;;;;;9.52;5.30;;;;;;;;;;5099904;28;20664;-61
2023/03/20 10:32:53;;;;;;;8.52;4.78;;;;;;;;;;5101622;28;20201;-62
2023/03/20 10:35:24;;;;;;;11.68;5.20;;;;;;;;;;5078175;28;20674;-62
2023/03/20 10:37:55;;;;;;;10.88;4.35;;;;;;;;;;5090192;28;20208;-62
2023/03/20 10:40:26;;;;;;;10.55;4.90;;;;;;;;;;5095561;28;20202;-61
2023/03/20 10:42:54;;;;;;;6.80;4.38;;;;;;;;;;5097661;27;20198;-61
2023/03/20 10:45:29;;;;;;;6.78;4.97;;;;;;;;;;5094161;28;20229;-62
2023/03/20 10:47:57;;;;;;;5.63;4.80;;;;;;;;;;5089310;28;20292;-61
2023/03/20 10:50:29;;;;;;;6.60;4.15;;;;;;;;;;5085637;28;20867;-61
2023/03/20 10:52:57;;;;;;;11.07;5.40;;;;;;;;;;5087093;28;20289;-61
2023/03/20 10:55:26;;;;;;;7.50;4.22;;;;;;;;;;5099846;28;20198;-61
2023/03/20 10:57:55;;;;;;;6.90;4.63;;;;;;;;;;5098457;28;20607;-61
2023/03/20 11:00:23;;;;;;;9.13;5.13;;;;;;;;;;5097958;28;20210;-60
2023/03/20 11:02:52;;;;;;;9.60;5.13;;;;;;;;;;5106204;28;20201;-61
2023/03/20 11:05:22;;;;;;;8.43;5.07;;;;;;;;;;5090405;28;20696;-62
2023/03/20 11:07:51;;;;;;;5.25;4.05;;;;;;;;;;5085569;28;20215;-62
2023/03/20 11:10:18;;;;;;;8.13;4.90;;;;;;;;;;5079476;28;20248;-61
2023/03/20 11:12:45;;;;;;;7.05;4.90;;;;;;;;;;5101350;28;20213;-61
2023/03/20 11:15:23;;;;;;;8.32;4.80;;;;;;;;;;5090344;28;20203;-61
2023/03/20 11:17:55;;;;;;;11.87;5.20;;;;;;;;;;5102095;28;20781;-61
2023/03/20 11:20:22;;;;;;;6.03;4.07;;;;;;;;;;5103854;28;20193;-62
2023/03/20 11:22:50;;;;;;;5.13;4.25;;;;;;;;;;5092108;28;20238;-61
2023/03/20 11:25:25;;;;;;;9.68;4.30;;;;;;;;;;5096743;28;20219;-63
2023/03/20 11:27:55;;;;;;;6.63;4.70;;;;;;;;;;5098077;28;20297;-61
2023/03/20 11:30:22;;;;;;;6.00;4.00;;;;;;;;;;5104962;28;20233;-61
2023/03/20 11:32:51;;;;;;;5.55;4.18;;;;;;;;;;5087444;28;20209;-61
2023/03/20 11:35:27;;;;;;;8.27;4.72;;;;;;;;;;5088299;28;20260;-61
2023/03/20 11:37:55;;;;;;;7.25;4.38;;;;;;;;;;5091316;28;20204;-61
2023/03/20 11:40:22;;;;;;;9.60;4.93;;;;;;;;;;5106980;28;20197;-61
2023/03/20 11:42:53;;;;;;;8.60;5.07;;;;;;;;;;5107056;28;20306;-61
2023/03/20 11:45:20;;;;;;;8.13;5.07;;;;;;;;;;5101707;28;20232;-60
2023/03/20 11:47:50;;;;;;;6.95;4.55;;;;;;;;;;5107308;28;20575;-61
2023/03/20 11:50:27;;;;;;;7.80;4.65;;;;;;;;;;5105670;28;20213;-61
2023/03/20 11:52:54;;;;;;;6.97;3.53;;;;;;;;;;5100607;28;20214;-61
2023/03/20 11:55:25;;;;;;;4.13;3.65;;;;;;;;;;5095700;28;20209;-62
2023/03/20 11:57:56;;;;;;;4.55;3.75;;;;;;;;;;5107197;28;20228;-62
2023/03/20 12:00:24;;;;;;;4.03;2.75;;;;;;;;;;5107188;28;20209;-61
2023/03/20 12:02:51;;;;;;;3.28;2.92;;;;;;;;;;5104844;28;20209;-62
2023/03/20 12:05:20;;;;;;;2.30;2.20;;;;;;;;;;5102141;28;20237;-61
2023/03/20 12:07:50;;;;;;;2.78;2.58;;;;;;;;;;5086682;28;20253;-61
2023/03/20 12:10:18;;;;;;;2.38;2.17;;;;;;;;;;5086788;28;20210;-62
2023/03/20 12:12:48;;;;;;;2.15;1.92;;;;;;;;;;5086529;28;20626;-62
2023/03/20 12:15:17;;;;;;;1.52;1.42;;;;;;;;;;5087955;28;20206;-61
2023/03/20 12:17:46;;;;;;;1.40;1.40;;;;;;;;;;5085912;28;20214;-62
2023/03/20 12:20:27;;;;;;;2.60;1.90;;;;;;;;;;5086036;28;20221;-61
2023/03/20 12:22:58;;;;;;;1.70;1.30;;;;;;;;;;5085866;28;20249;-60
2023/03/20 12:25:27;;;;;;;1.58;1.48;;;;;;;;;;5085610;28;20234;-61
2023/03/20 12:27:57;;;;;;;1.13;1.13;;;;;;;;;;5105145;28;20247;-61
2023/03/20 12:30:30;;;;;;;2.55;1.67;;;;;;;;;;5106143;28;20307;-61
2023/03/20 12:33:01;;;;;;;1.35;1.35;;;;;;;;;;5104493;28;20813;-60
2023/03/20 12:35:29;;;;;;;1.63;1.52;;;;;;;;;;5105435;28;20289;-61
2023/03/20 12:37:57;;;;;;;1.10;1.10;;;;;;;;;;5105599;28;20205;-62
2023/03/20 12:40:31;;;;;;;1.20;1.20;;;;;;;;;;5106484;28;20213;-62
2023/03/20 12:43:01;;;;;;;1.25;1.25;;;;;;;;;;5086354;28;20210;-61
2023/03/20 12:45:31;;;;;;;1.00;1.00;;;;;;;;;;5095649;28;20225;-62
2023/03/20 12:48:03;;;;;;;1.27;1.20;;;;;;;;;;5089581;28;20750;-62
2023/03/20 12:50:32;;;;;;;1.55;1.45;;;;;;;;;;5085540;28;20217;-60
2023/03/20 12:53:12;;;;;;;6.22;1.30;;;;;;;;;;5105704;28;20717;-60
2023/03/20 12:55:44;;;;;;;1.75;1.40;;;;;;;;;;5109494;28;20649;-62
2023/03/20 12:58:18;;;;;;;1.35;1.30;;;;;;;;;;5108671;28;20213;-61
2023/03/20 13:00:51;;;;;;;1.25;1.17;;;;;;;;;;5109620;28;20703;-62
2023/03/20 13:03:33;;;;;;;6.30;1.00;;;;;;;;;;5069276;28;20214;-62
2023/03/20 13:06:03;;;;;;;1.10;1.10;;;;;;;;;;5069150;28;20245;-61
2023/03/20 13:08:39;;;;;;;1.05;1.05;;;;;;;;;;5095746;28;20288;-61
2023/03/20 13:11:09;;;;;;;0.90;0.90;;;;;;;;;;5073481;28;20214;-61
2023/03/20 13:13:45;;;;;;;0.90;0.90;;;;;;;;;;5089116;28;20249;-62
2023/03/20 13:16:17;;;;;;;1.00;1.00;;;;;;;;;;5089453;28;20570;-61
2023/03/20 13:18:51;;;;;;;1.90;0.98;;;;;;;;;;5090222;28;20206;-61
2023/03/20 13:21:24;;;;;;;1.00;1.00;;;;;;;;;;5089462;28;20226;-61
2023/03/20 13:23:55;;;;;;;0.88;0.88;;;;;;;;;;5109887;28;20206;-61
2023/03/20 13:26:29;;;;;;;1.10;1.10;;;;;;;;;;5110035;28;20316;-61
2023/03/20 13:29:01;;;;;;;1.27;1.27;;;;;;;;;;5110093;28;20205;-61
2023/03/20 13:31:36;;;;;;;1.33;1.23;;;;;;;;;;5109974;28;20221;-61
2023/03/20 13:34:08;;;;;;;1.05;1.05;;;;;;;;;;5094539;28;20616;-61
2023/03/20 13:36:42;;;;;;;1.50;1.40;;;;;;;;;;5087918;28;20234;-61
2023/03/20 13:39:15;;;;;;;1.27;1.10;;;;;;;;;;5089239;28;20207;-61
2023/03/20 13:41:43;;;;;;;1.80;1.70;;;;;;;;;;5089212;28;20234;-61
2023/03/20 13:44:12;;;;;;;1.38;1.27;;;;;;;;;;5089089;28;20712;-61
2023/03/20 13:46:41;;;;;;;1.27;1.13;;;;;;;;;;5088878;28;20250;-61
2023/03/20 13:49:13;;;;;;;1.50;1.40;;;;;;;;;;5106244;28;20209;-61
2023/03/20 13:51:43;;;;;;;1.73;1.40;;;;;;;;;;5109670;28;20576;-61
2023/03/20 13:54:21;;;;;;;3.83;2.03;;;;;;;;;;5097801;28;20301;-61
2023/03/20 13:56:52;;;;;;;2.25;1.20;;;;;;;;;;5108830;28;20296;-61
2023/03/20 13:59:34;;;;;;;1.08;1.08;;;;;;;;;;5093483;27;20839;-61
2023/03/20 14:02:05;;;;;;;1.90;1.23;;;;;;;;;;5077036;28;20198;-62
2023/03/20 14:04:33;;;;;;;1.10;1.10;;;;;;;;;;5091792;28;20290;-61
2023/03/20 14:07:00;;;;;;;2.92;1.40;;;;;;;;;;5103752;28;20202;-61
2023/03/20 14:09:31;;;;;;;1.08;1.08;;;;;;;;;;5095558;28;20240;-61
2023/03/20 14:12:01;;;;;;;1.73;1.55;;;;;;;;;;5099432;28;20213;-65
2023/03/20 14:14:29;;;;;;;1.70;1.58;;;;;;;;;;5095832;28;20213;-61
2023/03/20 14:17:04;;;;;;;1.80;1.25;;;;;;;;;;5091252;28;20476;-62
2023/03/20 14:19:31;;;;;;;1.65;1.55;;;;;;;;;;5088464;28;20388;-61
2023/03/20 14:21:59;;;;;;;1.60;1.40;;;;;;;;;;5088240;28;20306;-61
2023/03/20 14:24:28;;;;;;;1.88;1.33;;;;;;;;;;5087896;28;20245;-61
2023/03/20 14:26:57;;;;;;;1.58;0.98;;;;;;;;;;5088307;28;20214;-61
2023/03/20 14:29:35;;;;;;;1.30;1.20;;;;;;;;;;5087960;28;20269;-61
2023/03/20 14:32:04;;;;;;;1.90;1.10;;;;;;;;;;5096092;28;20198;-61
2023/03/20 14:34:45;;;;;;;2.03;1.50;;;;;;;;;;5099430;28;20198;-61
2023/03/20 14:37:28;;;;;;;1.60;1.50;;;;;;;;;;5087859;28;20202;-61
2023/03/20 14:39:58;;;;;;;1.88;1.20;;;;;;;;;;5077601;28;20255;-61
2023/03/20 14:42:33;;;;;;;1.10;1.10;;;;;;;;;;5088129;28;20223;-61
2023/03/20 14:45:18;;;;;;;1.42;1.40;;;;;;;;;;5087748;28;20253;-61
2023/03/20 14:47:47;;;;;;;1.05;1.05;;;;;;;;;;5065255;28;20220;-61
2023/03/20 14:50:18;;;;;;;1.67;1.20;;;;;;;;;;5086968;28;20330;-61
2023/03/20 14:52:51;;;;;;;2.38;1.10;;;;;;;;;;5095907;28;20229;-61
2023/03/20 14:55:32;;;;;;;2.33;1.50;;;;;;;;;;5102897;28;20197;-61
2023/03/20 14:58:04;;;;;;;3.70;1.10;;;;;;;;;;5089708;28;20205;-61